Time;durP1;ratioP1;P1;durP2;ratioP2;P2;SDS_P1;SDS_P2;PMS_P1;PMS_P2;Temp;Humidity;BMP_temperature;BMP_pressure;BME280_temperature;BME280_humidity;BME280_pressure;Samples;Min_cycle;Max_cycle;Signal;HPM_P1;HPM_P2
2024/02/23 00:01:50;;;;;;;6.03;3.80;;;12.60;84.20;;;;;;4988370;28;20047;-58
2024/02/23 00:04:16;;;;;;;5.22;3.55;;;12.60;84.40;;;;;;4986205;28;20034;-56
2024/02/23 00:06:41;;;;;;;7.15;4.05;;;12.50;84.60;;;;;;4984276;28;20018;-55
2024/02/23 00:09:07;;;;;;;7.68;4.80;;;12.50;88.70;;;;;;4954238;28;20039;-59
2024/02/23 00:11:33;;;;;;;6.75;4.30;;;12.60;88.90;;;;;;4986794;28;20471;-57
2024/02/23 00:13:59;;;;;;;6.80;4.57;;;12.50;88.90;;;;;;4986779;28;20033;-56
2024/02/23 00:16:26;;;;;;;6.72;4.78;;;12.50;87.70;;;;;;4964355;28;20038;-56
2024/02/23 00:18:52;;;;;;;7.25;4.60;;;12.50;88.30;;;;;;4990107;28;20042;-56
2024/02/23 00:21:18;;;;;;;9.90;4.43;;;12.60;88.90;;;;;;4987379;28;20463;-55
2024/02/23 00:23:44;;;;;;;7.53;4.10;;;12.50;84.70;;;;;;4982894;28;20057;-59
2024/02/23 00:26:09;;;;;;;7.15;4.18;;;12.50;84.70;;;;;;4988209;28;20385;-57
2024/02/23 00:28:35;;;;;;;10.20;4.88;;;12.40;89.00;;;;;;4982504;28;20493;-55
2024/02/23 00:31:01;;;;;;;7.18;4.18;;;12.40;91.20;;;;;;4986878;28;20074;-55
2024/02/23 00:33:26;;;;;;;5.47;3.88;;;12.30;92.80;;;;;;4985790;28;20026;-53
2024/02/23 00:35:52;;;;;;;6.75;3.95;;;12.40;98.90;;;;;;4952567;28;20030;-54
2024/02/23 00:38:18;;;;;;;6.43;4.32;;;12.30;99.30;;;;;;4950749;28;20043;-55
2024/02/23 00:40:44;;;;;;;8.35;5.10;;;12.30;99.70;;;;;;4982158;28;20065;-57
2024/02/23 00:43:10;;;;;;;6.57;3.67;;;12.20;99.90;;;;;;4987875;28;20025;-54
2024/02/23 00:45:36;;;;;;;8.75;4.72;;;12.20;99.90;;;;;;4950383;28;20114;-53
2024/02/23 00:48:02;;;;;;;7.18;4.50;;;12.40;99.90;;;;;;4985753;28;20029;-56
2024/02/23 00:50:27;;;;;;;7.25;5.07;;;12.40;99.90;;;;;;4983752;28;20047;-57
2024/02/23 00:52:53;;;;;;;7.75;4.53;;;12.40;99.90;;;;;;4965271;28;20042;-54
2024/02/23 00:55:20;;;;;;;6.82;4.07;;;12.30;86.00;;;;;;4982689;28;20116;-53
2024/02/23 00:57:45;;;;;;;9.10;4.70;;;12.20;86.20;;;;;;4939328;28;20081;-55
2024/02/23 01:00:12;;;;;;;6.70;4.40;;;12.20;86.10;;;;;;4956925;28;20502;-56
2024/02/23 01:02:38;;;;;;;8.50;6.00;;;12.20;86.30;;;;;;4985015;28;20396;-57
2024/02/23 01:05:06;;;;;;;9.05;5.18;;;12.20;86.40;;;;;;4950049;28;20039;-57
2024/02/23 01:07:32;;;;;;;8.25;4.50;;;12.30;86.50;;;;;;4988266;28;20034;-56
2024/02/23 01:09:58;;;;;;;7.18;5.03;;;12.30;86.40;;;;;;4936461;28;20030;-58
2024/02/23 01:12:24;;;;;;;7.30;4.65;;;12.30;86.40;;;;;;4984755;28;20043;-58
2024/02/23 01:14:50;;;;;;;7.07;4.93;;;12.30;86.30;;;;;;4990197;28;20030;-55
2024/02/23 01:17:15;;;;;;;8.65;4.82;;;12.30;86.20;;;;;;4981190;28;20031;-56
2024/02/23 01:19:43;;;;;;;8.43;5.38;;;12.30;86.50;;;;;;4985478;28;20022;-54
2024/02/23 01:22:09;;;;;;;7.40;5.13;;;12.20;86.50;;;;;;4934123;28;20030;-54
2024/02/23 01:24:35;;;;;;;7.88;4.90;;;12.30;86.60;;;;;;4954984;28;20410;-58
2024/02/23 01:27:01;;;;;;;6.05;4.47;;;12.20;86.40;;;;;;4986248;28;20030;-55
2024/02/23 01:29:26;;;;;;;7.63;4.35;;;12.20;86.40;;;;;;4983603;28;20474;-58
2024/02/23 01:31:54;;;;;;;6.45;4.63;;;12.10;86.50;;;;;;4980189;28;20035;-56
2024/02/23 01:34:21;;;;;;;6.93;4.78;;;12.10;86.80;;;;;;4980328;28;20066;-58
2024/02/23 01:36:47;;;;;;;6.53;4.43;;;12.00;87.10;;;;;;4980527;28;20129;-54
2024/02/23 01:39:12;;;;;;;7.68;5.18;;;12.00;87.30;;;;;;4988569;28;20113;-52
2024/02/23 01:41:39;;;;;;;8.05;5.13;;;11.90;87.50;;;;;;4989555;28;20097;-57
2024/02/23 01:44:05;;;;;;;7.82;4.82;;;11.90;87.80;;;;;;4985879;28;20030;-56
2024/02/23 01:46:32;;;;;;;8.70;4.93;;;11.80;88.00;;;;;;4981258;28;20114;-58
2024/02/23 01:48:58;;;;;;;6.80;4.57;;;11.70;88.40;;;;;;4984468;28;20030;-56
2024/02/23 01:51:25;;;;;;;5.50;3.67;;;;;;;;;;4978057;28;20050;-54
2024/02/23 01:53:51;;;;;;;7.57;3.80;;;11.60;99.90;;;;;;4988268;28;20109;-57
2024/02/23 01:56:17;;;;;;;7.97;4.43;;;11.60;89.40;;;;;;4982554;28;20034;-55
2024/02/23 01:58:44;;;;;;;6.28;3.15;;;11.60;89.60;;;;;;4984529;28;20015;-57
2024/02/23 02:01:10;;;;;;;6.97;4.78;;;;;;;;;;4980596;28;20031;-56
2024/02/23 02:03:39;;;;;;;6.00;3.72;;;11.70;92.90;;;;;;4985522;28;20117;-56
2024/02/23 02:06:10;;;;;;;7.32;3.92;;;11.70;96.00;;;;;;4982221;28;20029;-56
2024/02/23 02:08:36;;;;;;;7.90;3.67;;;11.80;95.80;;;;;;4981636;28;20042;-56
2024/02/23 02:11:02;;;;;;;8.90;4.32;;;11.90;95.80;;;;;;4984994;28;20125;-57
2024/02/23 02:13:28;;;;;;;5.30;3.47;;;11.90;96.00;;;;;;4952226;28;20122;-59
2024/02/23 02:15:54;;;;;;;6.07;4.40;;;11.90;96.30;;;;;;4953326;28;20133;-57
2024/02/23 02:18:20;;;;;;;5.68;4.22;;;11.90;96.30;;;;;;4952545;28;20464;-55
2024/02/23 02:20:52;;;;;;;5.88;4.00;;;;;;;;;;4988440;28;20073;-61
2024/02/23 02:23:18;;;;;;;;;;;;;;;;;;4985767;28;20041;-56
2024/02/23 02:25:44;;;;;;;5.90;3.97;;;12.20;98.20;;;;;;4990681;28;20401;-53
2024/02/23 02:28:10;;;;;;;5.63;4.00;;;12.10;90.20;;;;;;4987279;28;20147;-55
2024/02/23 02:30:35;;;;;;;5.60;4.00;;;12.10;90.20;;;;;;4980065;28;20070;-57
2024/02/23 02:33:01;;;;;;;5.55;4.03;;;12.20;90.30;;;;;;4994084;28;20022;-54
2024/02/23 02:35:27;;;;;;;5.75;3.92;;;12.20;90.40;;;;;;4986836;28;20485;-56
2024/02/23 02:37:52;;;;;;;8.00;4.85;;;12.10;90.60;;;;;;4950795;28;20034;-59
2024/02/23 02:40:18;;;;;;;6.95;5.20;;;11.90;91.30;;;;;;4983118;28;20022;-55
2024/02/23 02:42:44;;;;;;;6.68;4.60;;;12.00;91.30;;;;;;4958240;28;20039;-56
2024/02/23 02:45:10;;;;;;;8.90;5.28;;;12.10;91.20;;;;;;4987268;28;20053;-56
2024/02/23 02:47:36;;;;;;;7.38;4.55;;;12.10;91.10;;;;;;4992423;28;20121;-54
2024/02/23 02:50:02;;;;;;;5.68;4.13;;;11.90;91.20;;;;;;4995565;28;20034;-56
2024/02/23 02:52:28;;;;;;;5.95;4.78;;;11.80;91.20;;;;;;4987431;28;20029;-59
2024/02/23 02:54:54;;;;;;;7.65;4.40;;;11.80;91.10;;;;;;4953054;28;20058;-57
2024/02/23 02:57:20;;;;;;;6.35;4.18;;;11.60;90.90;;;;;;4987675;28;20474;-59
2024/02/23 02:59:46;;;;;;;9.57;4.53;;;11.60;99.90;;;;;;4938785;28;20046;-56
2024/02/23 03:02:12;;;;;;;5.53;4.18;;;11.70;99.90;;;;;;4989498;28;20069;-55
2024/02/23 03:04:38;;;;;;;7.78;4.65;;;;;;;;;;4988821;28;20026;-55
2024/02/23 03:07:04;;;;;;;4.85;3.53;;;11.50;99.90;;;;;;4986034;28;20034;-56
2024/02/23 03:09:30;;;;;;;6.80;4.50;;;11.40;97.10;;;;;;4986198;28;20479;-57
2024/02/23 03:11:56;;;;;;;4.20;3.20;;;11.40;91.40;;;;;;4985961;28;20041;-54
2024/02/23 03:14:22;;;;;;;5.45;3.30;;;11.30;91.50;;;;;;4952958;28;20041;-55
2024/02/23 03:16:49;;;;;;;7.75;4.15;;;11.30;91.70;;;;;;4985679;28;20077;-59
2024/02/23 03:19:15;;;;;;;6.78;4.68;;;11.30;91.80;;;;;;4986674;28;20034;-60
2024/02/23 03:21:41;;;;;;;7.35;4.63;;;11.30;93.60;;;;;;4991482;28;20034;-55
2024/02/23 03:24:06;;;;;;;7.40;4.57;;;11.40;97.90;;;;;;4988438;28;20037;-57
2024/02/23 03:26:32;;;;;;;6.53;4.38;;;11.40;98.40;;;;;;4985947;28;20026;-57
2024/02/23 03:28:58;;;;;;;7.93;5.05;;;11.40;98.60;;;;;;4984404;28;20026;-55
2024/02/23 03:31:23;;;;;;;6.65;3.55;;;11.40;98.90;;;;;;4986967;28;20132;-58
2024/02/23 03:33:49;;;;;;;4.95;3.60;;;11.30;99.30;;;;;;4968516;28;20027;-54
2024/02/23 03:36:15;;;;;;;5.85;3.30;;;11.20;98.60;;;;;;4950426;28;20045;-55
2024/02/23 03:38:41;;;;;;;4.50;2.55;;;11.10;92.90;;;;;;4911284;28;20034;-52
2024/02/23 03:41:06;;;;;;;5.93;3.78;;;11.10;92.70;;;;;;4988485;28;20073;-57
2024/02/23 03:43:32;;;;;;;5.40;4.03;;;11.30;92.60;;;;;;4987123;28;20023;-58
2024/02/23 03:45:58;;;;;;;5.90;3.83;;;11.30;92.50;;;;;;4990652;28;20023;-58
2024/02/23 03:48:23;;;;;;;3.50;2.17;;;11.40;92.50;;;;;;4990626;28;20125;-55
2024/02/23 03:50:49;;;;;;;5.53;2.92;;;11.40;92.40;;;;;;4954817;28;20047;-55
2024/02/23 03:53:15;;;;;;;3.55;2.85;;;11.40;92.50;;;;;;4985718;28;20030;-55
2024/02/23 03:55:41;;;;;;;4.05;2.95;;;11.40;92.50;;;;;;4983280;28;20057;-55
2024/02/23 03:58:06;;;;;;;5.85;4.20;;;11.50;92.50;;;;;;4982714;28;20477;-60
2024/02/23 04:00:32;;;;;;;6.10;3.03;;;11.60;92.50;;;;;;4984741;28;20074;-55
2024/02/23 04:02:58;;;;;;;4.63;3.15;;;11.60;92.40;;;;;;4981198;28;20085;-55
2024/02/23 04:05:23;;;;;;;6.38;3.97;;;11.60;92.30;;;;;;4981300;28;20023;-58
2024/02/23 04:07:49;;;;;;;5.75;3.83;;;11.70;92.20;;;;;;4988177;28;20035;-60
2024/02/23 04:10:16;;;;;;;5.57;4.78;;;11.80;92.20;;;;;;4934439;28;20096;-56
2024/02/23 04:12:43;;;;;;;8.25;3.92;;;;;;;;;;4982263;28;20033;-57
2024/02/23 04:15:10;;;;;;;6.25;4.35;;;12.00;99.90;;;;;;4987994;28;20030;-55
2024/02/23 04:17:36;;;;;;;4.63;3.72;;;12.00;99.90;;;;;;4923188;28;20033;-56
2024/02/23 04:20:07;;;;;;;5.63;3.42;;;11.90;99.90;;;;;;4985951;28;20027;-57
2024/02/23 04:22:33;;;;;;;5.30;2.77;;;11.80;99.90;;;;;;4986545;28;20030;-57
2024/02/23 04:24:58;;;;;;;6.88;4.63;;;11.60;99.90;;;;;;4987326;28;20272;-54
2024/02/23 04:27:24;;;;;;;4.35;2.70;;;11.60;99.90;;;;;;4983832;28;20105;-58
2024/02/23 04:29:50;;;;;;;5.93;3.63;;;11.70;99.90;;;;;;4984794;28;20035;-56
2024/02/23 04:32:15;;;;;;;3.85;2.40;;;11.70;99.90;;;;;;4984968;28;20031;-58
2024/02/23 04:34:41;;;;;;;5.63;3.22;;;11.80;99.90;;;;;;4953145;28;20038;-57
2024/02/23 04:37:07;;;;;;;3.90;3.00;;;11.80;99.90;;;;;;4987464;28;20034;-52
2024/02/23 04:39:33;;;;;;;6.78;4.60;;;11.80;99.90;;;;;;4990377;28;20022;-55
2024/02/23 04:41:58;;;;;;;3.85;2.88;;;11.80;99.90;;;;;;4985289;28;20368;-58
2024/02/23 04:44:24;;;;;;;7.10;3.85;;;11.80;99.90;;;;;;4989890;28;20030;-58
2024/02/23 04:46:50;;;;;;;7.45;4.10;;;11.80;99.90;;;;;;4985201;28;20026;-54
2024/02/23 04:49:16;;;;;;;6.72;3.92;;;11.80;99.90;;;;;;4985009;28;20030;-57
2024/02/23 04:51:41;;;;;;;6.22;4.10;;;11.80;99.90;;;;;;4986815;28;20027;-55
2024/02/23 04:54:07;;;;;;;6.88;3.80;;;11.90;99.90;;;;;;4983828;28;20042;-53
2024/02/23 04:56:33;;;;;;;8.82;5.32;;;;;;;;;;4940934;28;20463;-58
2024/02/23 04:58:59;;;;;;;5.55;3.83;;;11.90;92.70;;;;;;4982536;28;20038;-59
2024/02/23 05:01:25;;;;;;;6.85;4.85;;;12.00;92.70;;;;;;4989091;28;20023;-55
2024/02/23 05:03:52;;;;;;;5.93;4.43;;;12.10;92.50;;;;;;4983053;28;20141;-55
2024/02/23 05:06:17;;;;;;;7.43;5.18;;;12.40;92.20;;;;;;4943923;28;20046;-57
2024/02/23 05:08:43;;;;;;;8.52;5.50;;;12.40;92.10;;;;;;4988357;28;20026;-56
2024/02/23 05:11:09;;;;;;;6.15;4.32;;;12.50;92.10;;;;;;4947411;28;20101;-55
2024/02/23 05:13:36;;;;;;;4.55;3.53;;;12.50;91.90;;;;;;4986759;28;20026;-55
2024/02/23 05:16:02;;;;;;;7.18;4.30;;;12.60;91.80;;;;;;4985098;28;20034;-57
2024/02/23 05:18:28;;;;;;;6.00;4.40;;;12.50;92.10;;;;;;4935632;28;20038;-57
2024/02/23 05:20:54;;;;;;;5.68;4.63;;;12.50;92.30;;;;;;4985511;28;20501;-57
2024/02/23 05:23:19;;;;;;;5.72;4.53;;;12.50;92.40;;;;;;4950610;28;20034;-56
2024/02/23 05:25:45;;;;;;;8.13;4.68;;;12.50;92.40;;;;;;4983998;28;20036;-59
2024/02/23 05:28:11;;;;;;;6.15;3.67;;;12.40;92.20;;;;;;4983839;28;20117;-55
2024/02/23 05:30:37;;;;;;;6.32;4.28;;;;;;;;;;4983499;28;20524;-55
2024/02/23 05:33:03;;;;;;;4.57;3.88;;;;;;;;;;4983066;28;20489;-55
2024/02/23 05:35:29;;;;;;;8.15;4.90;;;;;;;;;;4981961;28;20035;-55
2024/02/23 05:37:56;;;;;;;6.82;5.18;;;;;;;;;;4987483;28;20104;-55
2024/02/23 05:40:23;;;;;;;6.80;4.95;;;;;;;;;;4984743;28;20467;-60
2024/02/23 05:42:49;;;;;;;7.57;5.55;;;;;;;;;;4939841;28;20070;-53
2024/02/23 05:45:15;;;;;;;8.10;5.72;;;;;;;;;;4947914;28;20113;-57
2024/02/23 05:47:41;;;;;;;7.18;5.05;;;12.30;99.90;;;;;;4934495;28;20039;-55
2024/02/23 05:50:11;;;;;;;8.27;5.40;;;12.40;99.90;;;;;;4969656;28;20394;-57
2024/02/23 05:52:37;;;;;;;8.07;5.10;;;;;;;;;;4951952;28;20042;-57
2024/02/23 05:55:04;;;;;;;8.25;5.55;;;12.30;93.10;;;;;;4952765;28;20128;-60
2024/02/23 05:57:30;;;;;;;7.85;5.03;;;12.30;93.50;;;;;;4917762;29;20035;-59
2024/02/23 05:59:56;;;;;;;7.18;5.57;;;12.40;93.70;;;;;;4946060;29;20154;-56
2024/02/23 06:02:22;;;;;;;7.50;5.47;;;12.40;94.00;;;;;;4916669;28;20122;-57
2024/02/23 06:04:48;;;;;;;7.78;5.25;;;12.40;93.90;;;;;;4951932;28;20027;-53
2024/02/23 06:07:17;;;;;;;6.55;5.05;;;12.50;93.80;;;;;;4949587;28;20046;-58
2024/02/23 06:09:43;;;;;;;7.13;5.75;;;12.60;93.70;;;;;;4956452;28;20648;-55
2024/02/23 06:12:09;;;;;;;8.70;5.43;;;12.50;93.70;;;;;;4941130;28;20067;-54
2024/02/23 06:14:36;;;;;;;6.95;5.65;;;;;;;;;;4945450;28;20035;-50
2024/02/23 06:17:02;;;;;;;13.82;9.98;;;12.80;93.40;;;;;;4949900;28;20038;-56
2024/02/23 06:19:29;;;;;;;14.75;9.57;;;;;;;;;;4948187;28;20035;-58
2024/02/23 06:21:56;;;;;;;11.15;8.38;;;13.20;99.90;;;;;;4949199;28;20066;-57
2024/02/23 06:24:21;;;;;;;9.57;7.05;;;13.20;93.40;;;;;;4962820;28;20031;-55
2024/02/23 06:26:49;;;;;;;17.25;14.10;;;13.20;93.10;;;;;;4970798;28;20110;-55
2024/02/23 06:29:15;;;;;;;9.25;7.40;;;12.90;93.40;;;;;;4946988;29;20506;-54
2024/02/23 06:31:41;;;;;;;9.32;7.15;;;12.90;93.70;;;;;;4964336;28;20122;-55
2024/02/23 06:34:07;;;;;;;7.95;6.40;;;;;;;;;;4970465;28;20093;-55
2024/02/23 06:36:33;;;;;;;10.02;6.18;;;12.80;99.90;;;;;;4964477;28;20039;-55
2024/02/23 06:38:59;;;;;;;6.30;5.28;;;12.90;99.90;;;;;;4917519;28;20035;-53
2024/02/23 06:41:24;;;;;;;9.57;6.07;;;12.90;99.90;;;;;;4919402;29;20038;-55
2024/02/23 06:43:52;;;;;;;7.20;5.60;;;13.00;99.90;;;;;;4942952;28;20114;-55
2024/02/23 06:46:22;;;;;;;12.75;9.15;;;12.90;94.20;;;;;;4966936;28;20106;-54
2024/02/23 06:48:48;;;;;;;9.75;8.10;;;12.90;94.20;;;;;;4964879;28;20066;-54
2024/02/23 06:51:15;;;;;;;7.28;5.88;;;12.90;94.20;;;;;;4967055;28;20035;-54
2024/02/23 06:53:41;;;;;;;8.55;6.20;;;12.90;94.30;;;;;;4964008;28;20063;-55
2024/02/23 06:56:07;;;;;;;10.73;6.53;;;12.90;94.80;;;;;;4986968;28;20434;-56
2024/02/23 06:58:32;;;;;;;7.55;5.70;;;12.90;94.50;;;;;;4980443;28;20452;-53
2024/02/23 07:00:58;;;;;;;9.38;6.38;;;12.90;94.80;;;;;;4909034;28;20125;-55
2024/02/23 07:03:24;;;;;;;10.15;7.20;;;12.90;94.80;;;;;;4991390;28;20040;-54
2024/02/23 07:05:50;;;;;;;10.82;7.18;;;12.90;94.70;;;;;;4988964;28;20492;-52
2024/02/23 07:08:16;;;;;;;9.75;7.45;;;12.90;94.90;;;;;;4955253;28;20066;-54
2024/02/23 07:10:42;;;;;;;10.23;7.20;;;12.90;94.80;;;;;;4989804;28;20485;-52
2024/02/23 07:13:07;;;;;;;10.13;7.57;;;13.00;94.60;;;;;;4990251;28;20019;-56
2024/02/23 07:15:35;;;;;;;11.90;8.20;;;13.00;94.50;;;;;;4982782;28;20034;-54
2024/02/23 07:18:01;;;;;;;11.20;7.68;;;;;;;;;;4982138;28;20109;-52
2024/02/23 07:20:27;;;;;;;9.60;7.45;;;13.30;98.30;;;;;;4984435;28;20042;-52
2024/02/23 07:22:53;;;;;;;9.63;7.72;;;13.20;94.30;;;;;;4956658;28;20030;-56
2024/02/23 07:25:22;;;;;;;9.73;6.75;;;13.20;94.60;;;;;;4984271;28;20024;-52
2024/02/23 07:27:49;;;;;;;8.38;6.28;;;13.40;99.90;;;;;;4986842;28;20030;-53
2024/02/23 07:30:16;;;;;;;9.27;6.70;;;13.30;94.60;;;;;;4983247;28;20121;-52
2024/02/23 07:32:42;;;;;;;7.78;5.97;;;13.40;94.90;;;;;;4989108;28;20102;-53
2024/02/23 07:35:08;;;;;;;7.93;5.75;;;13.40;94.50;;;;;;4954581;28;20034;-55
2024/02/23 07:37:34;;;;;;;8.55;5.90;;;;;;;;;;4923824;28;20112;-57
2024/02/23 07:40:00;;;;;;;7.28;5.72;;;;;;;;;;4983051;28;20058;-57
2024/02/23 07:42:27;;;;;;;7.57;5.60;;;13.60;94.80;;;;;;4988636;28;20033;-55
2024/02/23 07:44:52;;;;;;;7.13;5.60;;;13.70;95.90;;;;;;4991599;28;20113;-55
2024/02/23 07:47:18;;;;;;;8.77;5.63;;;13.70;96.20;;;;;;4985307;28;20158;-55
2024/02/23 07:49:44;;;;;;;12.73;7.43;;;13.60;96.90;;;;;;4948313;28;20120;-56
2024/02/23 07:52:10;;;;;;;13.82;8.43;;;13.60;97.60;;;;;;4983717;28;20038;-53
2024/02/23 07:54:36;;;;;;;12.95;7.97;;;;;;;;;;4983677;28;20057;-53
2024/02/23 07:57:03;;;;;;;9.93;7.72;;;13.40;99.90;;;;;;4991749;28;20022;-55
2024/02/23 07:59:29;;;;;;;9.00;6.90;;;13.30;96.00;;;;;;4984277;28;20049;-55
2024/02/23 08:01:55;;;;;;;11.38;7.00;;;13.30;96.00;;;;;;4946250;29;20043;-52
2024/02/23 08:04:21;;;;;;;8.05;6.55;;;13.40;96.20;;;;;;4950291;28;20039;-52
2024/02/23 08:06:48;;;;;;;9.98;7.25;;;13.40;96.10;;;;;;4949558;28;20039;-53
2024/02/23 08:09:14;;;;;;;10.18;7.22;;;13.50;96.20;;;;;;4950986;28;20262;-54
2024/02/23 08:11:40;;;;;;;10.25;7.90;;;13.40;96.10;;;;;;4910566;28;20043;-55
2024/02/23 08:14:06;;;;;;;12.35;8.20;;;13.50;96.50;;;;;;4937469;29;20559;-56
2024/02/23 08:16:32;;;;;;;7.85;6.28;;;13.50;96.50;;;;;;4939712;28;20179;-55
2024/02/23 08:18:58;;;;;;;9.63;7.10;;;13.50;96.20;;;;;;4952767;28;20027;-53
2024/02/23 08:21:26;;;;;;;13.13;7.95;;;;;;;;;;4943487;29;20044;-52
2024/02/23 08:23:52;;;;;;;15.73;9.60;;;13.70;99.90;;;;;;4936919;28;20043;-53
2024/02/23 08:26:18;;;;;;;11.77;9.35;;;13.80;95.90;;;;;;4944122;28;20032;-54
2024/02/23 08:28:43;;;;;;;10.30;8.18;;;13.90;95.30;;;;;;4942813;28;20043;-55
2024/02/23 08:31:09;;;;;;;22.50;14.60;;;14.00;95.10;;;;;;4944862;28;20039;-53
2024/02/23 08:33:35;;;;;;;24.88;17.35;;;14.10;95.00;;;;;;4946543;28;20035;-53
2024/02/23 08:36:01;;;;;;;27.88;18.00;;;;;;;;;;4985872;28;20033;-54
2024/02/23 08:38:27;;;;;;;17.35;12.00;;;16.40;99.90;;;;;;4985963;28;20458;-55
2024/02/23 08:40:52;;;;;;;17.17;13.18;;;14.60;94.10;;;;;;4983332;28;20037;-55
2024/02/23 08:43:19;;;;;;;15.73;12.50;;;;;;;;;;4987259;28;20057;-55
2024/02/23 08:45:45;;;;;;;15.57;8.57;;;15.00;99.90;;;;;;4952640;28;20403;-56
2024/02/23 08:48:14;;;;;;;14.25;9.75;;;14.90;93.70;;;;;;4985525;28;20023;-55
2024/02/23 08:50:40;;;;;;;10.93;6.88;;;14.90;93.80;;;;;;4951049;28;20082;-57
2024/02/23 08:53:07;;;;;;;6.82;6.00;;;15.00;93.80;;;;;;4986152;28;20026;-55
2024/02/23 08:55:33;;;;;;;9.30;6.13;;;15.10;93.60;;;;;;4980102;28;20042;-54
2024/02/23 08:57:59;;;;;;;8.13;5.60;;;15.10;93.60;;;;;;4989030;28;20022;-57
2024/02/23 09:00:25;;;;;;;6.57;5.75;;;15.20;93.70;;;;;;4980947;28;20038;-56
2024/02/23 09:02:51;;;;;;;7.15;5.60;;;15.20;93.30;;;;;;4985167;28;20046;-55
2024/02/23 09:05:17;;;;;;;7.80;5.00;;;15.20;93.70;;;;;;4989988;28;20442;-52
2024/02/23 09:07:44;;;;;;;6.22;4.30;;;15.20;93.60;;;;;;4983933;28;20483;-55
2024/02/23 09:10:11;;;;;;;9.13;6.97;;;15.30;93.00;;;;;;4983706;28;20032;-56
2024/02/23 09:12:38;;;;;;;7.18;5.85;;;15.40;92.80;;;;;;4983607;28;20046;-55
2024/02/23 09:15:05;;;;;;;8.50;5.95;;;15.40;92.70;;;;;;4987599;28;20475;-55
2024/02/23 09:17:31;;;;;;;6.07;4.75;;;15.80;92.50;;;;;;4983181;28;20030;-54
2024/02/23 09:19:56;;;;;;;7.68;4.90;;;15.90;92.00;;;;;;4983944;28;20022;-54
2024/02/23 09:22:23;;;;;;;10.20;5.50;;;;;;;;;;4986440;28;20022;-54
2024/02/23 09:24:49;;;;;;;6.25;5.10;;;16.30;99.90;;;;;;4985575;28;20398;-53
2024/02/23 09:27:15;;;;;;;5.82;4.07;;;16.40;91.70;;;;;;4987713;28;20117;-52
2024/02/23 09:29:43;;;;;;;6.03;4.90;;;16.40;90.90;;;;;;4901860;28;20034;-52
2024/02/23 09:32:09;;;;;;;6.63;4.63;;;16.30;91.00;;;;;;4981619;28;20031;-52
2024/02/23 09:34:35;;;;;;;6.28;4.38;;;16.30;90.90;;;;;;4984628;28;20533;-53
2024/02/23 09:37:01;;;;;;;7.85;4.85;;;;;;;;;;4984786;28;20390;-55
2024/02/23 09:39:29;;;;;;;8.07;5.53;;;16.40;90.80;;;;;;4986530;28;20034;-51
2024/02/23 09:41:59;;;;;;;7.25;4.50;;;16.60;91.20;;;;;;4982195;28;20038;-52
2024/02/23 09:44:32;;;;;;;7.10;4.95;;;16.40;91.40;;;;;;4986821;28;20535;-53
2024/02/23 09:46:58;;;;;;;7.32;5.80;;;16.40;91.40;;;;;;4969978;28;20439;-56
2024/02/23 09:49:24;;;;;;;7.15;5.32;;;16.40;91.80;;;;;;4982223;28;20161;-50
2024/02/23 09:51:49;;;;;;;6.72;5.40;;;16.40;91.60;;;;;;4987787;28;20522;-53
2024/02/23 09:54:15;;;;;;;8.48;5.75;;;16.30;91.60;;;;;;4978484;28;20051;-54
2024/02/23 09:56:41;;;;;;;9.77;6.35;;;16.30;91.80;;;;;;4983514;28;20123;-49
2024/02/23 09:59:07;;;;;;;5.85;3.65;;;16.30;92.70;;;;;;4985931;28;20031;-51
2024/02/23 10:01:33;;;;;;;12.55;5.63;;;16.30;92.00;;;;;;4968363;28;20030;-51
2024/02/23 10:04:01;;;;;;;9.07;6.07;;;16.50;92.10;;;;;;4948982;28;20125;-52
2024/02/23 10:06:27;;;;;;;7.50;5.30;;;16.40;92.10;;;;;;4986180;28;20031;-53
2024/02/23 10:08:56;;;;;;;8.98;6.30;;;16.40;91.90;;;;;;4983291;28;20026;-52
2024/02/23 10:11:22;;;;;;;8.40;6.10;;;16.50;91.80;;;;;;4950878;28;20045;-54
2024/02/23 10:13:52;;;;;;;7.63;5.50;;;;;;;;;;4982973;28;20571;-52
2024/02/23 10:16:21;;;;;;;7.43;5.15;;;;;;;;;;4991045;28;20084;-54
2024/02/23 10:18:50;;;;;;;4.85;3.40;;;;;;;;;;4983762;28;20031;-51
2024/02/23 10:21:17;;;;;;;5.53;3.70;;;;;;;;;;4986928;28;20523;-53
2024/02/23 10:23:45;;;;;;;5.32;3.92;;;;;;;;;;4976853;28;20038;-52
2024/02/23 10:26:11;;;;;;;7.82;4.28;;;;;;;;;;4986726;28;20030;-53
2024/02/23 10:28:40;;;;;;;9.00;4.88;;;;;;;;;;4988220;28;20188;-53
2024/02/23 10:31:06;;;;;;;7.90;4.60;;;;;;;;;;4988804;28;20030;-52
2024/02/23 10:33:32;;;;;;;5.28;3.60;;;;;;;;;;4986270;28;20431;-53
2024/02/23 10:36:00;;;;;;;5.55;4.47;;;18.60;80.20;;;;;;4985712;28;20026;-53
2024/02/23 10:38:32;;;;;;;8.90;3.92;;;18.40;80.70;;;;;;4988109;28;20031;-53
2024/02/23 10:40:58;;;;;;;5.72;3.30;;;;;;;;;;4990421;28;20030;-53
2024/02/23 10:43:34;;;;;;;8.73;4.47;;;;;;;;;;4991580;28;20034;-51
2024/02/23 10:46:02;;;;;;;8.75;5.43;;;18.90;94.80;;;;;;4991731;28;20038;-50
2024/02/23 10:48:29;;;;;;;5.20;3.58;;;;;;;;;;4984612;28;20035;-53
2024/02/23 10:50:56;;;;;;;10.65;5.93;;;;;;;;;;4992487;28;20049;-53
2024/02/23 10:53:23;;;;;;;10.02;6.47;;;;;;;;;;4962636;28;20059;-54
2024/02/23 10:55:57;;;;;;;9.45;6.78;;;18.50;78.80;;;;;;4967170;28;20089;-54
2024/02/23 10:58:23;;;;;;;13.40;8.50;;;18.50;79.20;;;;;;4990485;28;20030;-51
2024/02/23 11:00:49;;;;;;;6.65;4.13;;;18.70;78.90;;;;;;4990638;28;20386;-53
2024/02/23 11:03:16;;;;;;;8.07;5.07;;;18.60;79.50;;;;;;4988995;28;20034;-54
2024/02/23 11:05:43;;;;;;;6.50;5.00;;;;;;;;;;4988582;28;20080;-53
2024/02/23 11:08:09;;;;;;;7.35;4.75;;;;;;;;;;4962265;28;20043;-53
2024/02/23 11:10:52;;;;;;;7.80;3.78;;;;;;;;;;4981868;28;20065;-51
2024/02/23 11:13:18;;;;;;;5.85;2.60;;;19.50;78.10;;;;;;4974329;28;20520;-49
2024/02/23 11:15:44;;;;;;;4.45;2.90;;;19.60;78.50;;;;;;4965344;28;20039;-51
2024/02/23 11:18:25;;;;;;;4.82;2.92;;;19.50;77.80;;;;;;4985109;28;20391;-52
2024/02/23 11:20:56;;;;;;;4.88;2.80;;;;;;;;;;4982386;28;20045;-50
2024/02/23 11:23:23;;;;;;;7.95;3.58;;;;;;;;;;4989196;28;20121;-49
2024/02/23 11:26:05;;;;;;;11.07;3.65;;;;;;;;;;4947377;28;20046;-49
2024/02/23 11:28:31;;;;;;;5.10;3.50;;;;;;;;;;4980035;28;20031;-51
2024/02/23 11:31:02;;;;;;;5.15;3.10;;;;;;;;;;4986465;28;20466;-49
2024/02/23 11:33:34;;;;;;;5.38;3.15;;;20.30;77.50;;;;;;4980650;28;20521;-50
2024/02/23 11:36:09;;;;;;;4.85;2.97;;;20.20;77.40;;;;;;4955048;28;20567;-51
2024/02/23 11:38:36;;;;;;;6.28;3.38;;;20.20;76.60;;;;;;4917105;28;20066;-49
2024/02/23 11:41:03;;;;;;;5.05;3.05;;;20.30;77.00;;;;;;4985588;28;20023;-48
2024/02/23 11:43:29;;;;;;;9.15;3.00;;;;;;;;;;4977013;28;20118;-50
2024/02/23 11:45:55;;;;;;;3.38;2.53;;;;;;;;;;4951526;28;20038;-51
2024/02/23 11:48:21;;;;;;;5.35;3.50;;;;;;;;;;4986680;28;20027;-49
2024/02/23 11:50:50;;;;;;;5.65;3.88;;;;;;;;;;4984421;28;20039;-49
2024/02/23 11:53:16;;;;;;;5.90;3.08;;;21.60;73.80;;;;;;4980582;28;20054;-50
2024/02/23 11:55:43;;;;;;;5.70;2.95;;;;;;;;;;4984690;28;20480;-49
2024/02/23 11:58:09;;;;;;;3.60;2.60;;;21.70;74.10;;;;;;4966277;28;20114;-49
2024/02/23 12:00:35;;;;;;;6.30;3.33;;;21.50;74.80;;;;;;4977842;28;20049;-49
2024/02/23 12:03:01;;;;;;;6.43;3.17;;;21.60;75.90;;;;;;4985964;28;20033;-49
2024/02/23 12:05:27;;;;;;;2.58;2.08;;;21.80;75.50;;;;;;4978924;28;20027;-49
2024/02/23 12:07:53;;;;;;;3.05;1.83;;;;;;;;;;4907979;28;20042;-49
2024/02/23 12:10:19;;;;;;;2.88;2.03;;;;;;;;;;4985757;28;20073;-49
2024/02/23 12:12:45;;;;;;;3.25;1.75;;;22.50;72.50;;;;;;4986208;28;20042;-50
2024/02/23 12:15:11;;;;;;;2.03;1.27;;;22.30;73.10;;;;;;4976585;28;20077;-49
2024/02/23 12:17:37;;;;;;;4.25;2.28;;;21.60;72.70;;;;;;4957534;28;20034;-49
2024/02/23 12:20:04;;;;;;;4.07;2.75;;;21.30;74.10;;;;;;4982095;28;20026;-50
2024/02/23 12:22:29;;;;;;;3.03;2.30;;;20.80;74.00;;;;;;4913133;28;20046;-49
2024/02/23 12:24:59;;;;;;;3.85;2.40;;;20.70;74.90;;;;;;4950792;28;20035;-49
2024/02/23 12:27:26;;;;;;;4.95;2.08;;;20.60;75.10;;;;;;4979166;28;20033;-50
2024/02/23 12:29:53;;;;;;;6.82;3.47;;;20.50;75.60;;;;;;4978805;28;20636;-51
2024/02/23 12:32:21;;;;;;;4.63;2.33;;;20.40;76.00;;;;;;4947477;28;20058;-50
2024/02/23 12:34:47;;;;;;;5.95;2.95;;;20.30;75.60;;;;;;4982054;28;20541;-50
2024/02/23 12:37:17;;;;;;;5.57;2.67;;;20.10;76.40;;;;;;4977730;28;20027;-50
2024/02/23 12:39:43;;;;;;;5.00;2.50;;;20.00;78.10;;;;;;4985003;28;20533;-50
2024/02/23 12:42:09;;;;;;;5.20;2.83;;;20.00;78.90;;;;;;4985308;28;20022;-50
2024/02/23 12:44:35;;;;;;;5.93;3.55;;;19.90;79.50;;;;;;4980605;28;20035;-50
2024/02/23 12:47:01;;;;;;;3.83;2.25;;;19.90;82.50;;;;;;4985382;28;20037;-50
2024/02/23 12:49:27;;;;;;;3.70;2.53;;;19.60;88.30;;;;;;4988623;28;20026;-49
2024/02/23 12:51:53;;;;;;;4.55;2.58;;;19.30;77.70;;;;;;4979209;28;20394;-50
2024/02/23 12:54:18;;;;;;;4.88;2.58;;;19.30;92.10;;;;;;4989476;28;20046;-50
2024/02/23 12:56:44;;;;;;;2.92;2.10;;;;;;;;;;4978756;28;20065;-50
2024/02/23 12:59:10;;;;;;;6.03;2.60;;;;;;;;;;4987472;28;20033;-50
2024/02/23 13:01:38;;;;;;;3.15;2.10;;;;;;;;;;4986949;28;20027;-50